Time;durP1;ratioP1;P1;durP2;ratioP2;P2;SDS_P1;SDS_P2;PMS_P1;PMS_P2;Temp;Humidity;BMP_temperature;BMP_pressure;BME280_temperature;BME280_humidity;BME280_pressure;Samples;Min_cycle;Max_cycle;Signal;HPM_P1;HPM_P2
2023/10/10 00:01:48;;;;;;;9.32;3.70;;;;;;;;;;5043725;28;20047;-59
2023/10/10 00:04:20;;;;;;;10.50;4.50;;;;;;;;;;5043300;28;20145;-60
2023/10/10 00:06:49;;;;;;;7.72;4.10;;;;;;;;;;5043109;28;20056;-59
2023/10/10 00:09:15;;;;;;;11.57;4.35;;;;;;;;;;5039331;28;20050;-60
2023/10/10 00:11:41;;;;;;;8.25;4.10;;;;;;;;;;5041528;28;20091;-60
2023/10/10 00:14:29;;;;;;;8.90;4.22;;;;;;;;;;5045091;28;20049;-59
2023/10/10 00:16:55;;;;;;;13.50;4.28;;;;;;;;;;5050204;28;20128;-59
2023/10/10 00:19:29;;;;;;;8.90;4.25;;;;;;;;;;5042769;28;20052;-59
2023/10/10 00:21:55;;;;;;;8.57;4.75;;;;;;;;;;5043890;28;20053;-60
2023/10/10 00:24:25;;;;;;;9.05;4.30;;;;;;;;;;5042898;28;20041;-59
2023/10/10 00:26:52;;;;;;;12.13;4.80;;;;;;;;;;5041674;28;20049;-61
2023/10/10 00:29:22;;;;;;;11.52;4.55;;;;;;;;;;5036058;28;20065;-59
2023/10/10 00:31:55;;;;;;;11.00;4.55;;;;;;;;;;5043472;28;20080;-59
2023/10/10 00:34:24;;;;;;;14.77;4.50;;;;;;;;;;5037808;28;20122;-59
2023/10/10 00:36:50;;;;;;;13.02;4.90;;;;;;;;;;5043411;28;20127;-59
2023/10/10 00:44:16;;;;;;;10.00;4.88;;;;;;;;;;5042730;28;20045;-59
2023/10/10 00:46:44;;;;;;;16.17;5.53;;;;;;;;;;5039556;28;20049;-60
2023/10/10 00:49:13;;;;;;;10.82;4.80;;;;;;;;;;5041878;28;20088;-59
2023/10/10 00:51:40;;;;;;;12.70;5.47;;;;;;;;;;5040069;28;20057;-60
2023/10/10 00:54:26;;;;;;;15.60;5.10;;;;;;;;;;5034670;28;20464;-59
2023/10/10 00:56:56;;;;;;;11.05;4.80;;;;;;;;;;5032748;28;20051;-60
2023/10/10 01:01:55;;;;;;;12.48;5.28;;;;;;;;;;5040070;28;20044;-59
2023/10/10 01:04:28;;;;;;;8.95;5.07;;;;;;;;;;5036893;28;20140;-59
2023/10/10 01:06:55;;;;;;;11.20;4.55;;;;;;;;;;5039351;28;20049;-60
2023/10/10 01:09:32;;;;;;;10.45;5.20;;;;;;;;;;5007485;28;20723;-60
2023/10/10 01:11:58;;;;;;;10.63;4.68;;;;;;;;;;5123287;22;20075;-60
2023/10/10 01:14:30;;;;;;;11.43;4.60;;;;;;;;;;5054550;28;20772;-59
2023/10/10 01:16:58;;;;;;;13.20;4.85;;;;;;;;;;5055573;28;20044;-59
2023/10/10 01:19:30;;;;;;;11.95;4.50;;;;;;;;;;5054433;28;20061;-60
2023/10/10 01:21:59;;;;;;;7.55;4.22;;;;;;;;;;5054108;28;20084;-59
2023/10/10 01:24:31;;;;;;;9.50;4.55;;;;;;;;;;5045476;28;20036;-60
2023/10/10 01:27:13;;;;;;;10.13;4.65;;;;;;;;;;5042786;28;20549;-59
2023/10/10 01:29:50;;;;;;;11.18;5.07;;;;;;;;;;5049976;28;20095;-60
2023/10/10 01:32:17;;;;;;;11.70;4.40;;;;;;;;;;5043142;28;20071;-59
2023/10/10 01:34:44;;;;;;;9.03;4.27;;;;;;;;;;5042659;28;20130;-59
2023/10/10 01:37:14;;;;;;;12.75;4.68;;;;;;;;;;5042971;28;20083;-59
2023/10/10 01:40:16;;;;;;;9.07;4.53;;;;;;;;;;5028353;28;20040;-60
2023/10/10 01:42:53;;;;;;;7.35;4.20;;;;;;;;;;5045575;28;20531;-59
2023/10/10 01:45:19;;;;;;;11.10;4.53;;;;;;;;;;5039296;28;20044;-59
2023/10/10 01:48:03;;;;;;;11.77;4.20;;;;;;;;;;5045366;28;20056;-59
2023/10/10 01:50:33;;;;;;;8.25;3.85;;;;;;;;;;5031091;28;20048;-60
2023/10/10 01:53:06;;;;;;;7.50;4.30;;;;;;;;;;5041108;28;20500;-59
2023/10/10 01:55:32;;;;;;;12.40;4.18;;;;;;;;;;5044964;28;20109;-59
2023/10/10 01:58:01;;;;;;;8.35;4.07;;;;;;;;;;5039066;28;20103;-59
2023/10/10 02:00:34;;;;;;;9.55;4.10;;;;;;;;;;5046175;28;20047;-59
2023/10/10 02:03:01;;;;;;;7.55;3.72;;;;;;;;;;5042362;28;20052;-59
2023/10/10 02:08:05;;;;;;;13.32;3.78;;;;;;;;;;5048333;28;20491;-59
2023/10/10 02:10:32;;;;;;;9.73;4.05;;;;;;;;;;5046198;28;20045;-60
2023/10/10 02:13:05;;;;;;;8.25;3.80;;;;;;;;;;5046503;28;20056;-59
2023/10/10 02:15:36;;;;;;;11.00;3.80;;;;;;;;;;5046670;28;20049;-59
2023/10/10 02:18:06;;;;;;;8.38;3.75;;;;;;;;;;5044937;28;20056;-59
2023/10/10 02:20:33;;;;;;;7.53;4.07;;;;;;;;;;5056148;28;20045;-59
2023/10/10 02:23:22;;;;;;;7.18;3.83;;;;;;;;;;5045503;28;20285;-59
2023/10/10 02:25:46;;;;;;;12.63;3.53;;;;;;;;;;5045977;28;20041;-59
2023/10/10 02:30:45;;;;;;;11.82;4.30;;;;;;;;;;5048594;28;20048;-59
2023/10/10 02:35:56;;;;;;;9.32;4.13;;;;;;;;;;5045362;28;20079;-59
2023/10/10 02:38:33;;;;;;;9.85;3.92;;;;;;;;;;5045647;28;20106;-59
2023/10/10 02:43:56;;;;;;;8.95;4.03;;;;;;;;;;5050642;28;20044;-59
2023/10/10 02:46:38;;;;;;;9.68;4.03;;;;;;;;;;5045975;28;20056;-59
2023/10/10 02:49:29;;;;;;;9.43;4.40;;;;;;;;;;5045761;28;20045;-59
2023/10/10 02:51:56;;;;;;;8.35;4.93;;;;;;;;;;5042479;28;20045;-59
2023/10/10 02:54:28;;;;;;;10.90;4.38;;;;;;;;;;5045712;28;20060;-59
2023/10/10 02:56:56;;;;;;;8.68;4.18;;;;;;;;;;5044828;28;20558;-59
2023/10/10 02:59:23;;;;;;;9.13;4.10;;;;;;;;;;5045129;28;20110;-59
2023/10/10 03:04:22;;;;;;;11.15;4.43;;;;;;;;;;5046986;28;20142;-59
2023/10/10 03:06:48;;;;;;;13.18;4.63;;;;;;;;;;5042992;28;20102;-59
2023/10/10 03:12:05;;;;;;;11.73;4.82;;;;;;;;;;4993783;28;20064;-60
2023/10/10 03:14:33;;;;;;;13.02;4.88;;;;;;;;;;5036965;28;20049;-59
2023/10/10 03:17:03;;;;;;;11.68;5.00;;;;;;;;;;5053566;28;20051;-59
2023/10/10 03:19:38;;;;;;;14.13;4.80;;;;;;;;;;5051422;28;20115;-59
2023/10/10 03:22:27;;;;;;;12.50;5.18;;;;;;;;;;5048911;28;20045;-60
2023/10/10 03:25:09;;;;;;;10.00;4.85;;;;;;;;;;5035836;28;20959;-59
2023/10/10 03:27:54;;;;;;;15.43;5.00;;;;;;;;;;5043832;28;20103;-59
2023/10/10 03:33:09;;;;;;;12.57;5.53;;;;;;;;;;5022282;28;20048;-60
2023/10/10 03:38:58;;;;;;;10.18;5.47;;;;;;;;;;5037641;28;20049;-59
2023/10/10 05:25:51;;;;;;;25.05;12.20;;;;;;;;;;5034713;28;20057;-59
2023/10/10 05:28:18;;;;;;;23.23;12.00;;;;;;;;;;5028375;28;20052;-59
2023/10/10 05:30:45;;;;;;;24.10;13.40;;;;;;;;;;5038543;28;20059;-60
2023/10/10 05:33:12;;;;;;;25.52;12.40;;;;;;;;;;5019539;28;20101;-60
2023/10/10 05:35:48;;;;;;;24.58;13.95;;;;;;;;;;5034574;28;20045;-61
2023/10/10 05:38:15;;;;;;;28.27;13.48;;;;;;;;;;5024530;28;20069;-60
2023/10/10 05:40:43;;;;;;;26.35;13.55;;;;;;;;;;5028764;28;20538;-60
2023/10/10 05:43:09;;;;;;;23.27;12.82;;;;;;;;;;5031290;28;20041;-60
2023/10/10 05:45:39;;;;;;;32.28;13.23;;;;;;;;;;5032256;28;20069;-60
2023/10/10 05:48:05;;;;;;;25.98;12.15;;;;;;;;;;5030875;28;20178;-59
2023/10/10 05:50:35;;;;;;;22.88;11.82;;;;;;;;;;5042842;28;20136;-59
2023/10/10 05:53:05;;;;;;;29.83;13.18;;;;;;;;;;5034056;28;20046;-59
2023/10/10 05:55:33;;;;;;;22.13;12.45;;;;;;;;;;5039782;28;20064;-60
2023/10/10 05:58:02;;;;;;;27.20;13.15;;;;;;;;;;5034137;28;20119;-60
2023/10/10 06:00:28;;;;;;;;;;;;;;;;;;5036178;28;20071;-59
2023/10/10 06:02:54;;;;;;;25.45;12.50;;;;;;;;;;5026319;28;20374;-59
2023/10/10 06:05:21;;;;;;;24.00;13.02;;;;;;;;;;5004649;28;20121;-59
2023/10/10 06:07:49;;;;;;;24.17;12.20;;;;;;;;;;5036168;28;20067;-59
2023/10/10 06:10:16;;;;;;;23.63;12.63;;;;;;;;;;5036236;28;20128;-59
2023/10/10 06:12:46;;;;;;;24.92;12.90;;;;;;;;;;5041564;28;20060;-60
2023/10/10 06:15:18;;;;;;;25.25;13.68;;;;;;;;;;5039152;28;20463;-60
2023/10/10 06:17:49;;;;;;;29.80;12.70;;;;;;;;;;5042915;28;20049;-59
2023/10/10 06:20:21;;;;;;;21.63;12.20;;;;;;;;;;5042754;28;20049;-59
2023/10/10 06:22:48;;;;;;;25.63;13.13;;;;;;;;;;5041963;28;20128;-59
2023/10/10 06:25:17;;;;;;;24.25;13.68;;;;;;;;;;5042321;28;20045;-60
2023/10/10 06:27:54;;;;;;;25.70;14.30;;;;;;;;;;5039166;28;20086;-60
2023/10/10 06:30:20;;;;;;;34.30;14.02;;;;;;;;;;5041350;28;20044;-59
2023/10/10 06:32:49;;;;;;;33.63;14.27;;;;;;;;;;5037356;28;20045;-60
2023/10/10 06:37:42;;;;;;;30.75;13.68;;;;;;;;;;5042089;28;20040;-60
2023/10/10 06:40:10;;;;;;;23.90;13.55;;;;;;;;;;5042551;28;20037;-59
2023/10/10 06:42:37;;;;;;;27.30;14.60;;;;;;;;;;5040854;28;20086;-60
2023/10/10 06:45:21;;;;;;;27.40;13.35;;;;;;;;;;5042352;28;20132;-61
2023/10/10 06:47:50;;;;;;;29.20;14.20;;;;;;;;;;5036997;28;20071;-60
2023/10/10 06:50:21;;;;;;;28.00;13.85;;;;;;;;;;5046314;28;20059;-60
2023/10/10 06:52:52;;;;;;;28.23;13.90;;;;;;;;;;5029646;28;20048;-60
2023/10/10 06:55:22;;;;;;;28.15;13.68;;;;;;;;;;5042501;28;20057;-60
2023/10/10 06:58:01;;;;;;;28.77;14.75;;;;;;;;;;5045090;28;20049;-60
2023/10/10 07:00:28;;;;;;;29.85;15.32;;;;;;;;;;5015015;28;20063;-59
2023/10/10 07:02:57;;;;;;;29.45;15.38;;;;;;;;;;5043402;28;20037;-59
2023/10/10 07:05:26;;;;;;;35.03;17.20;;;;;;;;;;5043802;28;20488;-59
2023/10/10 07:07:58;;;;;;;34.60;17.38;;;;;;;;;;5043933;28;20052;-60
2023/10/10 07:10:26;;;;;;;33.70;17.50;;;;;;;;;;5031307;28;20058;-59
2023/10/10 07:12:59;;;;;;;33.90;16.48;;;;;;;;;;5040950;28;20094;-60
2023/10/10 07:15:26;;;;;;;36.33;17.88;;;;;;;;;;5042928;28;20052;-59
2023/10/10 07:18:04;;;;;;;34.80;18.77;;;;;;;;;;5046482;28;20040;-60
2023/10/10 07:23:16;;;;;;;35.47;17.30;;;;;;;;;;5052188;28;20193;-60
2023/10/10 07:25:57;;;;;;;36.42;19.00;;;;;;;;;;5042681;28;20119;-60
2023/10/10 07:28:26;;;;;;;32.72;18.27;;;;;;;;;;5042713;28;20049;-60
2023/10/10 07:30:52;;;;;;;47.50;20.48;;;;;;;;;;5024128;28;20123;-60
2023/10/10 07:33:22;;;;;;;43.00;20.40;;;;;;;;;;5042823;28;20049;-60
2023/10/10 07:35:53;;;;;;;41.75;20.98;;;;;;;;;;5034229;28;20071;-60
2023/10/10 07:38:29;;;;;;;47.90;21.95;;;;;;;;;;5039990;28;20048;-61
2023/10/10 07:40:55;;;;;;;46.60;23.00;;;;;;;;;;5039371;28;20450;-61
2023/10/10 07:43:27;;;;;;;48.53;23.67;;;;;;;;;;5044247;28;20076;-61
2023/10/10 07:45:55;;;;;;;53.92;26.27;;;;;;;;;;5045049;28;20078;-61
2023/10/10 07:51:05;;;;;;;68.13;31.52;;;;;;;;;;5044551;28;20078;-61
2023/10/10 07:53:34;;;;;;;70.15;31.73;;;;;;;;;;5058184;28;20113;-61
2023/10/10 07:56:02;;;;;;;;;;;;;;;;;;5061876;28;20059;-61
2023/10/10 07:58:45;;;;;;;75.30;30.92;;;;;;;;;;5045495;28;19917;-61
2023/10/10 08:01:16;;;;;;;68.03;30.77;;;;;;;;;;5043538;28;20047;-61
2023/10/10 08:03:44;;;;;;;68.68;31.48;;;;;;;;;;5044423;28;20406;-61
2023/10/10 08:06:10;;;;;;;69.43;30.27;;;;;;;;;;5044552;28;20072;-61
2023/10/10 08:08:36;;;;;;;61.90;29.55;;;;;;;;;;5044209;28;20437;-60
2023/10/10 08:11:14;;;;;;;67.35;29.67;;;;;;;;;;5045046;28;20053;-61
2023/10/10 08:13:42;;;;;;;56.20;28.13;;;;;;;;;;5042201;28;20040;-60
2023/10/10 08:16:08;;;;;;;71.50;30.45;;;;;;;;;;5043860;28;20048;-60
2023/10/10 08:18:49;;;;;;;64.20;29.42;;;;;;;;;;5048346;28;20048;-61
2023/10/10 08:21:17;;;;;;;68.80;30.58;;;;;;;;;;5040237;28;20092;-61
2023/10/10 08:23:46;;;;;;;64.43;29.58;;;;;;;;;;5044198;28;20057;-60
2023/10/10 08:26:18;;;;;;;62.10;29.85;;;;;;;;;;5043188;28;20045;-61
2023/10/10 08:28:47;;;;;;;64.65;29.20;;;;;;;;;;5044156;28;20045;-61
2023/10/10 08:31:13;;;;;;;68.43;29.30;;;;;;;;;;5044426;28;20040;-61
2023/10/10 08:33:48;;;;;;;64.32;30.13;;;;;;;;;;5043746;28;20048;-61
2023/10/10 08:36:23;;;;;;;64.82;31.13;;;;;;;;;;5046278;28;20040;-60
2023/10/10 08:38:52;;;;;;;62.03;30.17;;;;;;;;;;5050444;28;20544;-61
2023/10/10 08:41:22;;;;;;;71.45;30.17;;;;;;;;;;5045684;28;20090;-61
2023/10/10 08:43:57;;;;;;;60.15;29.60;;;;;;;;;;5043236;28;20479;-61
2023/10/10 08:46:26;;;;;;;61.80;30.35;;;;;;;;;;5050660;28;20037;-60
2023/10/10 08:48:52;;;;;;;;;;;;;;;;;;5044043;28;20501;-61
2023/10/10 08:51:18;;;;;;;63.72;29.13;;;;;;;;;;5043738;28;19921;-60
2023/10/10 08:53:44;;;;;;;67.55;31.73;;;;;;;;;;5051613;28;20186;-61
2023/10/10 08:56:14;;;;;;;63.40;30.08;;;;;;;;;;5042667;28;20053;-61
2023/10/10 08:58:40;;;;;;;64.95;30.00;;;;;;;;;;5036638;28;20530;-61
2023/10/10 09:01:08;;;;;;;59.70;30.15;;;;;;;;;;5035954;28;20127;-61
2023/10/10 09:03:34;;;;;;;66.53;30.58;;;;;;;;;;5043283;28;20052;-61
2023/10/10 09:06:14;;;;;;;60.92;28.60;;;;;;;;;;5043684;28;20118;-61
2023/10/10 09:08:43;;;;;;;66.35;30.25;;;;;;;;;;5043703;28;20073;-61
2023/10/10 09:11:11;;;;;;;67.70;31.63;;;;;;;;;;5042229;28;20065;-61
2023/10/10 09:13:55;;;;;;;64.03;30.27;;;;;;;;;;5040329;28;20131;-61
2023/10/10 09:16:42;;;;;;;67.15;31.35;;;;;;;;;;5046498;28;20167;-61
2023/10/10 09:19:08;;;;;;;59.20;29.95;;;;;;;;;;5039999;28;20095;-60
2023/10/10 09:21:50;;;;;;;64.05;31.60;;;;;;;;;;5053876;28;20128;-60
2023/10/10 09:24:28;;;;;;;67.93;30.73;;;;;;;;;;5026179;28;20057;-60
2023/10/10 09:26:59;;;;;;;72.85;32.45;;;;;;;;;;5043789;28;20048;-61
2023/10/10 09:29:42;;;;;;;73.32;32.90;;;;;;;;;;5043275;28;20707;-60
2023/10/10 09:32:13;;;;;;;66.93;32.88;;;;;;;;;;5045658;28;20044;-60
2023/10/10 09:34:42;;;;;;;61.35;31.83;;;;;;;;;;5042846;28;20040;-60
2023/10/10 09:37:14;;;;;;;67.10;32.90;;;;;;;;;;5047157;28;20578;-60
2023/10/10 09:39:42;;;;;;;59.88;30.88;;;;;;;;;;5042731;28;20108;-60
2023/10/10 09:42:23;;;;;;;69.28;32.30;;;;;;;;;;5044331;28;20076;-60
2023/10/10 09:47:42;;;;;;;63.92;31.08;;;;;;;;;;5054678;28;20128;-60
2023/10/10 09:52:58;;;;;;;68.70;31.42;;;;;;;;;;5042961;28;20059;-61
2023/10/10 10:00:45;;;;;;;61.60;28.85;;;;;;;;;;5042276;28;20045;-61
2023/10/10 10:06:02;;;;;;;59.85;28.58;;;;;;;;;;5052001;28;20044;-62
2023/10/10 10:08:46;;;;;;;58.92;27.48;;;;;;;;;;5039292;28;20865;-61
2023/10/10 10:11:19;;;;;;;65.60;28.23;;;;;;;;;;5049270;28;20056;-61
2023/10/10 10:13:48;;;;;;;54.25;26.95;;;;;;;;;;5053136;28;20057;-61
2023/10/10 10:16:32;;;;;;;49.97;26.23;;;;;;;;;;5040654;28;20063;-61
2023/10/10 10:19:11;;;;;;;48.92;25.58;;;;;;;;;;5040550;28;20124;-62
2023/10/10 10:21:52;;;;;;;53.90;25.38;;;;;;;;;;5035811;28;20115;-61
2023/10/10 10:24:44;;;;;;;54.72;27.13;;;;;;;;;;5040031;28;20049;-61
2023/10/10 10:30:46;;;;;;;45.90;23.70;;;;;;;;;;5034655;28;20045;-61
2023/10/10 10:32:59;;;;;;;45.85;23.77;;;;;;;;;;5041576;28;20052;-61
2023/10/10 10:35:37;;;;;;;47.20;22.88;;;;;;;;;;5052288;28;20048;-61
2023/10/10 10:38:06;;;;;;;47.80;22.27;;;;;;;;;;5044778;28;20091;-62
2023/10/10 10:43:05;;;;;;;42.22;23.85;;;;;;;;;;5043323;28;20779;-61
2023/10/10 10:45:40;;;;;;;43.03;23.10;;;;;;;;;;5051263;28;20044;-61
2023/10/10 10:48:07;;;;;;;36.83;20.77;;;;;;;;;;5044284;28;20135;-61
2023/10/10 10:50:40;;;;;;;35.17;19.42;;;;;;;;;;5042429;28;20098;-61
2023/10/10 10:53:30;;;;;;;45.72;21.63;;;;;;;;;;5043833;28;20072;-61
2023/10/10 11:01:21;;;;;;;35.03;19.13;;;;;;;;;;5054657;28;20060;-61
2023/10/10 11:03:51;;;;;;;37.90;18.63;;;;;;;;;;5047373;28;20044;-61
2023/10/10 11:06:20;;;;;;;30.45;17.60;;;;;;;;;;5050395;28;20427;-61
2023/10/10 11:09:07;;;;;;;33.58;18.67;;;;;;;;;;5038692;28;20620;-61
2023/10/10 11:14:02;;;;;;;34.90;18.40;;;;;;;;;;5041114;28;20064;-62
2023/10/10 11:16:37;;;;;;;41.40;19.58;;;;;;;;;;5032490;28;20053;-61
2023/10/10 11:21:53;;;;;;;33.35;18.60;;;;;;;;;;5050369;28;20056;-62
2023/10/10 11:24:26;;;;;;;33.70;18.48;;;;;;;;;;5042802;28;20053;-61
2023/10/10 11:29:47;;;;;;;38.40;18.90;;;;;;;;;;5041393;28;20049;-61
2023/10/10 11:32:15;;;;;;;39.35;19.95;;;;;;;;;;5038439;28;20474;-62
2023/10/10 11:34:44;;;;;;;36.47;19.23;;;;;;;;;;5022155;28;20051;-61
2023/10/10 11:37:21;;;;;;;38.92;19.85;;;;;;;;;;5024828;28;20680;-61
2023/10/10 11:42:55;;;;;;;40.47;18.08;;;;;;;;;;5041904;28;20044;-61
2023/10/10 11:45:25;;;;;;;39.47;19.02;;;;;;;;;;5033145;28;20076;-61
2023/10/10 11:47:52;;;;;;;35.60;19.02;;;;;;;;;;5039239;28;20049;-61
2023/10/10 11:50:47;;;;;;;39.10;18.58;;;;;;;;;;5039533;28;20095;-61
2023/10/10 11:53:15;;;;;;;35.47;18.80;;;;;;;;;;5041101;28;20059;-61
2023/10/10 11:55:41;;;;;;;38.70;17.42;;;;;;;;;;5050037;28;20051;-62
2023/10/10 11:58:16;;;;;;;35.30;18.50;;;;;;;;;;5035309;28;20434;-62
2023/10/10 12:00:43;;;;;;;33.83;17.48;;;;;;;;;;5033668;28;20041;-61
2023/10/10 12:03:31;;;;;;;32.47;16.42;;;;;;;;;;5043434;28;20045;-62
2023/10/10 12:05:59;;;;;;;28.17;14.98;;;;;;;;;;5044852;28;20067;-62
2023/10/10 12:08:25;;;;;;;29.83;14.40;;;;;;;;;;5027905;28;20045;-61
2023/10/10 12:10:52;;;;;;;25.80;14.10;;;;;;;;;;5043623;28;20594;-62
2023/10/10 12:16:12;;;;;;;32.15;16.55;;;;;;;;;;5048377;28;20052;-62
2023/10/10 12:18:52;;;;;;;28.85;14.18;;;;;;;;;;5044096;28;20048;-62
2023/10/10 12:21:31;;;;;;;28.33;15.23;;;;;;;;;;5050503;28;20044;-61
2023/10/10 12:23:57;;;;;;;30.75;15.70;;;;;;;;;;5049637;28;20446;-61
2023/10/10 12:26:38;;;;;;;27.23;14.73;;;;;;;;;;5040921;28;20055;-61
2023/10/10 12:29:04;;;;;;;30.40;15.88;;;;;;;;;;5037174;28;20534;-62
2023/10/10 12:31:34;;;;;;;29.67;16.42;;;;;;;;;;5042878;28;20051;-61
2023/10/10 12:34:00;;;;;;;29.27;16.50;;;;;;;;;;5048396;28;20053;-63
2023/10/10 12:36:29;;;;;;;26.33;14.68;;;;;;;;;;5044433;28;20044;-61
2023/10/10 12:38:55;;;;;;;29.20;15.35;;;;;;;;;;5038223;28;20040;-61
2023/10/10 12:41:21;;;;;;;33.20;14.95;;;;;;;;;;5042998;28;20107;-62
2023/10/10 12:43:48;;;;;;;30.45;15.02;;;;;;;;;;5043162;28;20041;-61
2023/10/10 12:46:20;;;;;;;29.05;15.45;;;;;;;;;;5043803;28;20587;-62
2023/10/10 12:48:48;;;;;;;32.33;16.33;;;;;;;;;;5047999;28;20080;-61
2023/10/10 12:51:15;;;;;;;29.20;14.70;;;;;;;;;;5038882;28;20053;-62
2023/10/10 12:53:42;;;;;;;30.35;15.38;;;;;;;;;;5019443;28;20052;-61
2023/10/10 12:56:16;;;;;;;33.22;16.13;;;;;;;;;;5039131;28;20044;-60
2023/10/10 12:58:43;;;;;;;30.15;15.80;;;;;;;;;;5028959;28;20049;-60
2023/10/10 13:01:22;;;;;;;32.88;15.52;;;;;;;;;;5037171;28;20040;-60
2023/10/10 13:03:48;;;;;;;31.02;16.08;;;;;;;;;;5010634;28;20095;-60
2023/10/10 13:06:14;;;;;;;32.22;15.07;;;;;;;;;;5034512;28;20041;-60
2023/10/10 13:08:48;;;;;;;34.95;17.08;;;;;;;;;;5041278;28;20072;-61
2023/10/10 13:11:19;;;;;;;29.77;16.38;;;;;;;;;;5032313;28;20049;-63
2023/10/10 13:13:51;;;;;;;31.35;16.58;;;;;;;;;;5040658;28;20049;-62
2023/10/10 13:19:06;;;;;;;28.52;15.57;;;;;;;;;;5024116;28;20037;-60
2023/10/10 13:21:34;;;;;;;31.70;16.27;;;;;;;;;;5040598;28;20049;-60
2023/10/10 13:24:01;;;;;;;35.40;17.15;;;;;;;;;;5037952;28;20044;-60
2023/10/10 13:26:31;;;;;;;36.88;16.85;;;;;;;;;;5039159;28;20155;-60
2023/10/10 13:28:57;;;;;;;31.20;17.33;;;;;;;;;;5034183;28;20135;-60
2023/10/10 13:31:29;;;;;;;32.00;18.60;;;;;;;;;;5038879;28;20107;-59
2023/10/10 13:33:55;;;;;;;27.77;17.17;;;;;;;;;;5037048;28;20037;-60
2023/10/10 13:36:21;;;;;;;28.98;17.23;;;;;;;;;;5037580;28;20091;-60
2023/10/10 13:38:48;;;;;;;30.25;16.67;;;;;;;;;;5043126;28;20152;-59
2023/10/10 13:41:27;;;;;;;31.95;17.58;;;;;;;;;;5032705;28;20305;-60
2023/10/10 13:43:54;;;;;;;26.45;15.02;;;;;;;;;;5038363;28;20126;-60
2023/10/10 13:46:23;;;;;;;29.67;15.90;;;;;;;;;;5030286;28;20053;-60
2023/10/10 13:48:50;;;;;;;31.13;16.33;;;;;;;;;;5034931;28;20060;-60
2023/10/10 13:51:16;;;;;;;31.98;15.10;;;;;;;;;;5038079;28;20041;-60
2023/10/10 13:53:44;;;;;;;45.38;16.23;;;;;;;;;;5037260;28;20045;-61
2023/10/10 13:56:13;;;;;;;33.33;15.82;;;;;;;;;;5030242;28;20041;-60
2023/10/10 13:58:46;;;;;;;30.02;15.82;;;;;;;;;;5031562;28;20131;-61
2023/10/10 14:03:45;;;;;;;28.15;16.05;;;;;;;;;;5042433;28;20094;-60
2023/10/10 14:06:12;;;;;;;28.08;15.10;;;;;;;;;;5034965;28;20046;-61
2023/10/10 14:08:43;;;;;;;30.38;15.80;;;;;;;;;;5044342;28;20052;-60
2023/10/10 14:11:10;;;;;;;26.45;14.70;;;;;;;;;;5025580;28;20057;-60
2023/10/10 14:13:37;;;;;;;30.15;15.18;;;;;;;;;;5025382;28;20045;-60
2023/10/10 14:16:03;;;;;;;25.10;15.77;;;;;;;;;;5044631;28;20053;-60
2023/10/10 14:18:29;;;;;;;29.80;16.55;;;;;;;;;;5046280;28;20048;-60
2023/10/10 14:20:56;;;;;;;32.30;18.45;;;;;;;;;;5045844;28;20049;-60
2023/10/10 14:23:24;;;;;;;33.55;17.05;;;;;;;;;;5044439;28;20099;-60
2023/10/10 14:25:50;;;;;;;34.20;17.63;;;;;;;;;;5042429;28;20048;-61
2023/10/10 14:28:16;;;;;;;29.30;18.27;;;;;;;;;;5042722;28;20064;-60
2023/10/10 14:30:43;;;;;;;32.78;17.38;;;;;;;;;;5037805;28;20037;-61
2023/10/10 14:33:09;;;;;;;32.15;17.48;;;;;;;;;;5046209;28;20056;-62
2023/10/10 14:35:35;;;;;;;33.92;17.25;;;;;;;;;;5035654;28;20052;-61
2023/10/10 14:38:02;;;;;;;32.85;17.50;;;;;;;;;;5036743;28;20398;-61
2023/10/10 14:40:28;;;;;;;31.33;16.98;;;;;;;;;;5040226;28;20073;-61
2023/10/10 14:42:54;;;;;;;37.47;17.40;;;;;;;;;;5042599;28;20041;-61
2023/10/10 14:45:24;;;;;;;30.45;16.52;;;;;;;;;;5030809;28;20045;-61
2023/10/10 14:47:51;;;;;;;31.30;17.00;;;;;;;;;;5028519;28;20037;-61
2023/10/10 14:50:23;;;;;;;32.60;17.35;;;;;;;;;;5026838;28;20050;-61
2023/10/10 14:52:49;;;;;;;34.30;18.17;;;;;;;;;;5026731;28;20519;-61
2023/10/10 14:55:23;;;;;;;32.05;17.45;;;;;;;;;;5050848;28;20044;-60
2023/10/10 14:57:54;;;;;;;29.63;16.30;;;;;;;;;;5050677;28;20123;-61
2023/10/10 15:00:21;;;;;;;32.53;16.67;;;;;;;;;;5032881;28;20055;-61
2023/10/10 15:02:47;;;;;;;35.80;15.80;;;;;;;;;;5043032;28;20041;-61
2023/10/10 15:05:14;;;;;;;31.20;17.13;;;;;;;;;;5028749;28;20051;-61
2023/10/10 15:07:41;;;;;;;34.60;16.77;;;;;;;;;;5038249;28;20042;-61
2023/10/10 15:10:08;;;;;;;34.30;16.73;;;;;;;;;;5031630;28;20048;-61
2023/10/10 15:12:34;;;;;;;30.35;16.42;;;;;;;;;;5030434;28;20529;-61
2023/10/10 15:15:00;;;;;;;29.25;15.00;;;;;;;;;;5030940;28;20048;-62
2023/10/10 15:17:27;;;;;;;29.85;15.63;;;;;;;;;;5040202;28;20056;-61
2023/10/10 15:19:53;;;;;;;30.05;15.40;;;;;;;;;;5050058;28;20041;-61
2023/10/10 15:22:19;;;;;;;37.13;16.40;;;;;;;;;;5042435;28;20049;-63
2023/10/10 15:24:52;;;;;;;29.80;15.88;;;;;;;;;;5044628;28;20049;-62
2023/10/10 15:27:19;;;;;;;26.75;14.68;;;;;;;;;;5043124;28;20045;-62
2023/10/10 15:29:45;;;;;;;31.63;15.20;;;;;;;;;;5032574;28;20044;-62
2023/10/10 15:32:13;;;;;;;33.50;15.00;;;;;;;;;;5043360;28;20052;-62
2023/10/10 15:34:39;;;;;;;32.85;15.45;;;;;;;;;;5043348;28;20087;-62
2023/10/10 15:37:14;;;;;;;30.42;16.23;;;;;;;;;;5040009;28;20045;-62
2023/10/10 15:39:41;;;;;;;25.52;14.57;;;;;;;;;;5042639;28;20045;-62
2023/10/10 15:42:07;;;;;;;29.75;15.20;;;;;;;;;;5042294;28;20049;-62
2023/10/10 15:44:34;;;;;;;26.58;15.05;;;;;;;;;;5047091;28;20233;-62
2023/10/10 15:47:02;;;;;;;25.98;13.75;;;;;;;;;;5049024;28;20044;-62
2023/10/10 15:49:28;;;;;;;;;;;;;;;;;;5052603;28;20423;-62
2023/10/10 15:51:56;;;;;;;27.30;14.23;;;;;;;;;;5040728;28;20465;-62
2023/10/10 15:54:28;;;;;;;20.88;13.13;;;;;;;;;;5040130;28;20055;-61
2023/10/10 15:56:54;;;;;;;24.42;12.40;;;;;;;;;;5042745;28;20053;-63
2023/10/10 15:59:20;;;;;;;22.63;12.50;;;;;;;;;;5040827;28;20041;-63
2023/10/10 16:01:47;;;;;;;29.80;12.25;;;;;;;;;;5043580;28;20053;-62
2023/10/10 16:04:13;;;;;;;31.95;13.15;;;;;;;;;;5042905;28;20049;-62
2023/10/10 16:06:47;;;;;;;21.70;12.30;;;;;;;;;;5043609;28;20041;-62
2023/10/10 16:09:20;;;;;;;25.90;11.55;;;;;;;;;;5025066;28;20140;-62
2023/10/10 16:11:52;;;;;;;22.95;11.77;;;;;;;;;;5041846;28;20068;-62
2023/10/10 16:14:19;;;;;;;23.35;12.07;;;;;;;;;;5041752;28;20056;-62
2023/10/10 16:16:45;;;;;;;27.15;12.02;;;;;;;;;;5039887;28;20048;-62
2023/10/10 16:19:22;;;;;;;25.77;12.25;;;;;;;;;;5038318;28;20070;-61
2023/10/10 16:21:49;;;;;;;20.03;12.33;;;;;;;;;;5046546;28;20133;-62
2023/10/10 16:24:15;;;;;;;20.85;11.45;;;;;;;;;;5042105;28;20068;-62
2023/10/10 16:26:41;;;;;;;22.13;12.88;;;;;;;;;;5044243;28;20498;-63
2023/10/10 16:29:08;;;;;;;25.48;12.35;;;;;;;;;;5043456;28;20040;-60
2023/10/10 16:31:36;;;;;;;27.00;13.00;;;;;;;;;;5043677;28;20478;-61
2023/10/10 16:34:05;;;;;;;24.85;12.73;;;;;;;;;;5043379;28;20041;-61
2023/10/10 16:36:32;;;;;;;26.42;13.18;;;;;;;;;;5018581;28;20478;-60
2023/10/10 16:38:58;;;;;;;25.05;13.48;;;;;;;;;;5042989;28;20051;-60
2023/10/10 16:41:24;;;;;;;22.33;13.68;;;;;;;;;;5043153;28;20045;-61
2023/10/10 16:43:50;;;;;;;35.85;14.40;;;;;;;;;;5043927;28;20534;-61
2023/10/10 16:46:17;;;;;;;30.30;14.23;;;;;;;;;;5043624;28;20477;-63
2023/10/10 16:48:44;;;;;;;23.10;14.18;;;;;;;;;;5032016;28;20521;-60
2023/10/10 16:51:16;;;;;;;27.17;14.13;;;;;;;;;;5054062;28;20754;-60
2023/10/10 16:53:43;;;;;;;26.67;14.45;;;;;;;;;;5036726;28;20040;-60
2023/10/10 16:56:10;;;;;;;29.25;13.52;;;;;;;;;;5040437;28;20632;-60
2023/10/10 16:58:38;;;;;;;22.35;14.15;;;;;;;;;;5041016;28;20048;-61
2023/10/10 17:01:04;;;;;;;26.25;13.77;;;;;;;;;;5047377;28;20430;-60
2023/10/10 17:03:33;;;;;;;28.38;14.93;;;;;;;;;;5043033;28;20237;-60
2023/10/10 17:06:00;;;;;;;25.65;14.77;;;;;;;;;;5031251;28;20076;-60
2023/10/10 17:08:26;;;;;;;30.65;14.60;;;;;;;;;;5040187;28;20515;-60
2023/10/10 17:10:59;;;;;;;29.27;14.85;;;;;;;;;;5050509;28;20095;-60
2023/10/10 17:13:25;;;;;;;21.05;13.35;;;;;;;;;;5040101;28;20135;-61
2023/10/10 17:15:51;;;;;;;28.02;13.43;;;;;;;;;;5040953;28;20120;-61
2023/10/10 17:18:20;;;;;;;25.85;13.43;;;;;;;;;;5052021;28;20052;-61
2023/10/10 17:20:46;;;;;;;;;;;;;;;;;;5051310;28;20088;-61
2023/10/10 17:23:13;;;;;;;26.55;13.63;;;;;;;;;;5040293;28;20025;-61
2023/10/10 17:25:40;;;;;;;26.73;15.02;;;;;;;;;;5039280;28;20041;-61
2023/10/10 17:28:06;;;;;;;23.33;13.43;;;;;;;;;;5040799;28;20094;-61
2023/10/10 17:30:32;;;;;;;29.52;13.65;;;;;;;;;;5033506;28;20327;-60
2023/10/10 17:33:00;;;;;;;25.60;13.55;;;;;;;;;;5030166;28;20525;-60
2023/10/10 17:35:29;;;;;;;27.00;13.43;;;;;;;;;;5040087;28;20056;-61
2023/10/10 17:37:56;;;;;;;27.67;14.10;;;;;;;;;;5040719;28;20544;-61
2023/10/10 17:40:22;;;;;;;23.73;13.07;;;;;;;;;;5043072;28;20053;-61
2023/10/10 17:42:48;;;;;;;26.27;13.60;;;;;;;;;;5044745;28;20052;-61
2023/10/10 17:45:14;;;;;;;22.75;12.73;;;;;;;;;;5041006;28;20522;-61
2023/10/10 17:47:40;;;;;;;23.73;14.07;;;;;;;;;;5022368;28;20080;-61